createdAt,value
2023-03-15T00:03:45.360Z,98629.88
2023-03-15T00:08:48.144Z,98629.97
2023-03-15T00:13:51.891Z,98589.03
2023-03-15T00:18:57.449Z,98619.41
2023-03-15T00:23:59.611Z,98626.41
2023-03-15T00:29:02.192Z,98614.09
2023-03-15T00:34:04.588Z,98610.69
2023-03-15T00:39:06.789Z,98628.13
2023-03-15T00:44:09.060Z,98576.84
2023-03-15T00:49:12.257Z,98629.81
2023-03-15T00:54:14.479Z,98623.69
2023-03-15T00:59:16.769Z,98596.66
2023-03-15T01:04:18.973Z,98538.50
2023-03-15T01:09:21.796Z,98606.13
2023-03-15T01:14:24.624Z,98631.47
2023-03-15T01:19:27.720Z,98575.84
2023-03-15T01:24:30.237Z,98567.03
2023-03-15T01:29:32.492Z,98561.06
2023-03-15T01:34:37.234Z,98581.97
2023-03-15T01:39:39.595Z,98620.19
2023-03-15T01:44:56.908Z,98625.41
2023-03-15T01:50:04.330Z,98609.56
2023-03-15T01:55:15.626Z,98618.34
2023-03-15T02:00:37.805Z,98577.38
2023-03-15T02:05:48.792Z,98598.31
2023-03-15T02:11:00.724Z,98605.22
2023-03-15T02:16:07.093Z,98636.41
2023-03-15T02:21:27.998Z,98651.22
2023-03-15T02:26:44.992Z,98646.13
2023-03-15T02:31:47.243Z,98630.34
2023-03-15T02:36:49.662Z,98613.03
2023-03-15T02:41:54.918Z,98633.94
2023-03-15T02:47:01.807Z,98637.44
2023-03-15T02:52:04.353Z,98637.41
2023-03-15T02:57:08.404Z,98613.06
2023-03-15T03:02:14.504Z,98619.94
2023-03-15T03:07:18.769Z,98604.44
2023-03-15T03:12:28.869Z,98602.50
2023-03-15T03:17:31.421Z,98643.41
2023-03-15T03:22:35.284Z,98611.16
2023-03-15T03:27:37.718Z,98627.63
2023-03-15T03:32:42.200Z,98548.44
2023-03-15T03:37:45.064Z,98656.81
2023-03-15T03:48:15.178Z,98621.31
2023-03-15T03:53:17.619Z,98664.81
2023-03-15T03:58:20.271Z,98565.69
2023-03-15T04:03:31.387Z,98637.88
2023-03-15T04:08:47.286Z,98605.06
2023-03-15T04:13:55.508Z,98577.19
2023-03-15T04:18:58.164Z,98609.31
2023-03-15T04:24:02.103Z,98589.28
2023-03-15T04:29:27.150Z,98580.53
2023-03-15T04:34:56.173Z,98571.81
2023-03-15T04:40:07.417Z,98677.81
2023-03-15T04:45:12.876Z,98623.81
2023-03-15T04:50:18.290Z,98693.38
2023-03-15T04:55:27.075Z,98701.16
2023-03-15T05:00:55.820Z,98648.94
2023-03-15T05:06:15.460Z,98665.41
2023-03-15T05:11:17.742Z,98676.72
2023-03-15T05:16:28.152Z,98653.16
2023-03-15T05:21:36.977Z,98702.88
2023-03-15T05:26:42.252Z,98708.09
2023-03-15T05:31:44.596Z,98691.72
2023-03-15T05:37:04.033Z,98730.84
2023-03-15T05:42:27.797Z,98732.56
2023-03-15T05:47:41.482Z,98734.28
2023-03-15T05:52:51.085Z,98745.72
2023-03-15T05:58:01.002Z,98742.41
2023-03-15T06:03:23.698Z,98733.72
2023-03-15T06:08:31.978Z,98758.94
2023-03-15T06:13:35.030Z,98753.88
2023-03-15T06:18:42.466Z,98757.50
2023-03-15T06:23:45.184Z,98721.06
2023-03-15T06:28:47.645Z,98625.34
2023-03-15T06:33:50.033Z,98716.19
2023-03-15T06:38:54.837Z,98788.44
2023-03-15T06:43:57.306Z,98731.19
2023-03-15T06:49:00.039Z,98785.28
2023-03-15T06:54:03.254Z,98778.44
2023-03-15T06:59:08.486Z,98754.84
2023-03-15T07:04:10.895Z,98735.66
2023-03-15T07:12:53.248Z,98751.56
2023-03-15T07:17:55.638Z,98729.16
2023-03-15T07:22:58.008Z,98746.53
2023-03-15T07:28:00.282Z,98720.44
2023-03-15T07:33:02.477Z,98716.16
2023-03-15T07:38:04.710Z,98729.16
2023-03-15T07:43:07.026Z,98768.38
2023-03-15T07:48:09.296Z,98795.44
2023-03-15T07:53:11.591Z,98672.06
2023-03-15T07:58:14.054Z,98662.59
2023-03-15T08:03:16.574Z,98738.25
2023-03-15T08:08:19.028Z,98813.94
2023-03-15T08:13:21.320Z,98799.97
2023-03-15T08:18:23.799Z,98812.34
2023-03-15T08:23:26.524Z,98795.94
2023-03-15T08:28:28.802Z,98812.69
2023-03-15T08:33:33.187Z,98713.72
2023-03-15T08:38:35.954Z,98758.22
2023-03-15T08:43:38.270Z,98701.84
2023-03-15T08:48:40.448Z,98784.50
2023-03-15T08:53:42.796Z,98764.56
2023-03-15T08:58:44.964Z,98811.53
2023-03-15T09:03:49.276Z,98710.75
2023-03-15T09:08:53.998Z,98815.84
2023-03-15T09:13:56.678Z,98703.00
2023-03-15T09:18:59.468Z,98807.38
2023-03-15T09:24:01.942Z,98769.28
2023-03-15T09:29:04.552Z,98790.16
2023-03-15T09:34:06.945Z,98765.91
2023-03-15T09:39:09.197Z,98703.41
2023-03-15T09:44:26.553Z,98816.31
2023-03-15T09:49:33.519Z,98818.97
2023-03-15T09:54:58.874Z,98821.53
2023-03-15T10:00:05.284Z,98802.41
2023-03-15T10:05:20.306Z,98785.03
2023-03-15T10:10:30.609Z,98836.25
2023-03-15T10:15:40.420Z,98726.00
2023-03-15T10:20:48.606Z,98836.28
2023-03-15T10:25:52.425Z,98796.38
2023-03-15T10:30:57.819Z,98842.41
2023-03-15T10:36:11.375Z,98802.47
2023-03-15T10:41:23.490Z,98838.06
2023-03-15T10:46:31.365Z,98832.88
2023-03-15T10:51:47.650Z,98845.03
2023-03-15T10:57:14.868Z,98838.06
2023-03-15T11:02:23.341Z,98812.00
2023-03-15T11:07:25.740Z,98776.31
2023-03-15T11:12:33.738Z,98761.56
2023-03-15T11:17:43.600Z,98838.81
2023-03-15T11:22:45.935Z,98696.41
2023-03-15T11:27:53.688Z,98778.84
2023-03-15T11:32:56.439Z,98719.78
2023-03-15T11:38:14.576Z,98797.97
2023-03-15T11:43:30.461Z,98794.53
2023-03-15T11:48:44.800Z,98753.72
2023-03-15T11:54:13.089Z,98782.34
2023-03-15T11:59:19.237Z,98791.00
2023-03-15T12:04:38.634Z,98763.25
2023-03-15T12:09:48.691Z,98823.13
2023-03-15T12:15:15.285Z,98824.03
2023-03-15T12:20:21.290Z,98821.41
2023-03-15T12:25:45.432Z,98806.69
2023-03-15T12:31:02.048Z,98790.19
2023-03-15T12:36:10.207Z,98794.56
2023-03-15T12:41:42.628Z,98818.03
2023-03-15T12:46:44.733Z,98815.41
2023-03-15T12:52:14.237Z,98745.94
2023-03-15T12:57:25.986Z,98839.66
2023-03-15T13:02:43.658Z,98750.19
2023-03-15T13:08:08.611Z,98818.81
2023-03-15T13:13:13.869Z,98837.03
2023-03-15T13:18:20.284Z,98836.16
2023-03-15T13:23:29.942Z,98831.88
2023-03-15T13:28:40.076Z,98831.91
2023-03-15T13:33:42.382Z,98824.00
2023-03-15T13:38:50.415Z,98790.91
2023-03-15T13:43:59.707Z,98829.16
2023-03-15T13:49:05.084Z,98785.72
2023-03-15T13:54:09.080Z,98816.06
2023-03-15T13:59:12.656Z,98851.59
2023-03-15T14:04:18.027Z,98859.34
2023-03-15T14:09:25.961Z,98846.31
2023-03-15T14:14:29.702Z,98849.75
2023-03-15T14:19:34.646Z,98828.78
2023-03-15T14:24:39.900Z,98813.94
2023-03-15T14:29:50.684Z,98842.66
2023-03-15T14:35:00.661Z,98869.50
2023-03-15T14:40:23.192Z,98853.09
2023-03-15T14:45:25.624Z,98840.81
2023-03-15T14:50:31.249Z,98854.59
2023-03-15T14:55:35.660Z,98862.47
2023-03-15T15:00:38.588Z,98835.47
2023-03-15T15:05:41.246Z,98831.13
2023-03-15T15:10:45.943Z,98829.38
2023-03-15T15:15:55.532Z,98800.59
2023-03-15T15:21:01.149Z,98820.53
2023-03-15T15:26:05.543Z,98819.56
2023-03-15T15:31:08.176Z,98854.34
2023-03-15T15:36:19.502Z,98826.44
2023-03-15T15:41:27.298Z,98843.75
2023-03-15T15:46:29.607Z,98852.44
2023-03-15T15:51:38.435Z,98841.00
2023-03-15T15:56:45.401Z,98743.53
2023-03-15T16:02:00.173Z,98863.47
2023-03-15T16:07:07.056Z,98852.91
2023-03-15T16:12:18.392Z,98874.63
2023-03-15T16:17:23.083Z,98886.59
2023-03-15T16:22:27.445Z,98864.69
2023-03-15T16:27:30.826Z,98874.16
2023-03-15T16:32:43.905Z,98897.59
2023-03-15T16:37:48.961Z,98872.13
2023-03-15T16:42:51.836Z,98831.97
2023-03-15T16:47:54.501Z,98920.56
2023-03-15T16:52:58.654Z,98922.09
2023-03-15T16:58:13.213Z,98931.63
2023-03-15T17:03:16.606Z,98917.50
2023-03-15T17:08:20.094Z,98920.88
2023-03-15T17:13:27.487Z,98883.38
2023-03-15T17:18:31.114Z,98932.91
2023-03-15T17:23:33.600Z,98925.84
2023-03-15T17:28:37.276Z,98909.25
2023-03-15T17:33:39.878Z,98775.91
2023-03-15T17:38:42.640Z,98928.09
2023-03-15T17:43:45.266Z,98938.66
2023-03-15T17:48:48.781Z,98903.66
2023-03-15T17:53:52.002Z,98926.16
2023-03-15T17:58:54.489Z,98941.00
2023-03-15T18:03:57.433Z,98942.66
2023-03-15T18:08:59.911Z,98913.06
2023-03-15T18:14:04.753Z,98932.19
2023-03-15T18:19:07.396Z,98891.09
2023-03-15T18:24:12.774Z,98929.31
2023-03-15T18:29:17.566Z,98952.81
2023-03-15T18:34:22.255Z,98941.47
2023-03-15T18:39:25.558Z,98877.78
2023-03-15T18:44:28.041Z,98796.88
2023-03-15T18:49:30.717Z,98884.84
2023-03-15T18:54:33.220Z,98854.19
2023-03-15T18:59:35.680Z,98923.06
2023-03-15T19:04:38.425Z,98916.88
2023-03-15T19:09:41.000Z,98942.13
2023-03-15T19:14:46.209Z,98882.09
2023-03-15T19:19:48.591Z,98868.13
2023-03-15T19:24:50.995Z,98887.19
2023-03-15T19:29:53.394Z,98897.69
2023-03-15T19:34:58.214Z,98931.66
2023-03-15T19:40:04.095Z,98811.44
2023-03-15T19:45:07.162Z,98933.34
2023-03-15T19:50:11.627Z,98929.88
2023-03-15T19:55:18.787Z,98820.81
2023-03-15T20:00:23.706Z,98922.63
2023-03-15T20:05:26.440Z,98896.44
2023-03-15T20:10:28.990Z,98948.66
2023-03-15T20:15:32.421Z,98886.84
2023-03-15T20:20:34.730Z,98947.78
2023-03-15T20:25:37.226Z,98916.44
2023-03-15T20:30:41.195Z,98946.88
2023-03-15T20:35:44.665Z,98923.34
2023-03-15T20:40:47.129Z,98786.50
2023-03-15T20:45:49.673Z,98930.38
2023-03-15T20:50:54.743Z,98877.81
2023-03-15T20:55:56.942Z,98827.44
2023-03-15T21:01:08.223Z,98876.25
2023-03-15T21:06:11.256Z,98918.88
2023-03-15T21:11:13.764Z,98871.00
2023-03-15T21:16:16.897Z,98916.19
2023-03-15T21:21:19.768Z,98938.88
2023-03-15T21:26:22.740Z,98891.91
2023-03-15T21:31:25.220Z,98929.38
2023-03-15T21:36:27.647Z,98923.19
2023-03-15T21:41:31.742Z,98927.59
2023-03-15T21:46:34.165Z,98856.19
2023-03-15T21:51:37.475Z,98931.03
2023-03-15T21:56:41.204Z,98890.19
2023-03-15T22:01:43.638Z,98922.34
2023-03-15T22:06:46.002Z,98786.28
2023-03-15T22:11:48.289Z,98931.84
2023-03-15T22:16:51.950Z,98941.22
2023-03-15T22:21:54.236Z,98848.16
2023-03-15T22:26:56.982Z,98815.44
2023-03-15T22:31:59.524Z,98487.19
2023-03-15T22:37:05.012Z,98838.88
2023-03-15T22:42:07.645Z,98889.47
2023-03-15T22:47:10.428Z,98934.81
2023-03-15T22:52:12.806Z,98943.41
2023-03-15T22:57:16.134Z,98874.41
2023-03-15T23:02:18.561Z,98870.94
2023-03-15T23:07:21.676Z,98925.72
2023-03-15T23:12:33.822Z,98896.19
2023-03-15T23:17:37.994Z,98878.81
2023-03-15T23:22:40.330Z,98903.28
2023-03-15T23:27:42.654Z,98912.13
2023-03-15T23:32:45.130Z,98911.25
2023-03-15T23:37:48.084Z,98849.13
2023-03-15T23:42:59.095Z,98875.31
2023-03-15T23:48:04.750Z,98896.19
2023-03-15T23:53:07.094Z,98922.22
2023-03-15T23:58:09.374Z,98872.50
